Time;durP1;ratioP1;P1;durP2;ratioP2;P2;SDS_P1;SDS_P2;PMS_P1;PMS_P2;Temp;Humidity;BMP_temperature;BMP_pressure;BME280_temperature;BME280_humidity;BME280_pressure;Samples;Min_cycle;Max_cycle;Signal;HPM_P1;HPM_P2
2022/04/01 00:01:43;;;;;;;;;;;6.70;99.90;;;5.76;100.00;93405.66;10519167;28;2337;-73
2022/04/01 00:06:47;;;;;;;;;;;6.60;99.90;;;5.77;100.00;93397.34;10517038;28;1901;-72
2022/04/01 00:11:51;;;;;;;;;;;6.70;99.90;;;5.62;100.00;93403.03;10522596;28;1969;-72
2022/04/01 00:16:54;;;;;;;;;;;6.60;99.90;;;5.50;100.00;93394.78;10517516;28;2332;-71
2022/04/01 00:22:03;;;;;;;;;;;6.50;99.90;;;5.64;100.00;93403.53;10524382;28;3118;-72
2022/04/01 00:27:06;;;;;;;;;;;6.50;99.90;;;5.51;100.00;93399.00;10513808;28;1886;-71
2022/04/01 00:32:09;;;;;;;;;;;6.40;99.90;;;5.46;100.00;93397.25;10524156;28;1913;-72
2022/04/01 00:37:13;;;;;;;;;;;6.30;99.90;;;5.38;100.00;93403.28;10516328;28;1798;-73
2022/04/01 00:42:16;;;;;;;;;;;6.20;99.90;;;5.29;100.00;93403.19;10519174;28;1897;-71
2022/04/01 00:47:19;;;;;;;;;;;6.20;99.90;;;5.42;100.00;93391.72;10517671;28;1935;-71
2022/04/01 00:52:23;;;;;;;;;;;6.30;99.90;;;5.40;100.00;93393.09;10501640;28;2080;-72
2022/04/01 00:57:25;;;;;;;;;;;6.20;99.90;;;5.39;100.00;93397.66;10515310;28;2030;-71
2022/04/01 01:02:29;;;;;;;;;;;6.30;99.90;;;5.48;100.00;93389.75;10515475;28;1894;-72
2022/04/01 01:07:32;;;;;;;;;;;6.40;99.90;;;5.51;100.00;93380.34;10517711;22;2085;-75
2022/04/01 01:12:36;;;;;;;;;;;6.40;99.90;;;5.54;100.00;93377.13;10480839;28;2049;-76
2022/04/01 01:17:39;;;;;;;;;;;6.40;99.90;;;5.60;100.00;93381.25;10476034;28;2315;-75
2022/04/01 01:22:44;;;;;;;;;;;6.40;99.90;;;5.58;100.00;93378.84;10481824;28;2341;-77
2022/04/01 01:27:47;;;;;;;;;;;6.50;99.90;;;5.52;100.00;93380.06;10472298;28;1919;-76
2022/04/01 01:32:50;;;;;;;;;;;6.50;99.90;;;5.45;100.00;93368.22;10462520;28;2345;-77
2022/04/01 01:37:53;;;;;;;;;;;6.40;99.90;;;5.38;100.00;93374.75;10472083;28;1967;-75
2022/04/01 01:42:56;;;;;;;;;;;6.30;99.90;;;5.37;100.00;93367.84;10476682;28;1972;-76
2022/04/01 01:48:00;;;;;;;;;;;6.30;99.90;;;5.21;100.00;93358.59;10470350;28;2349;-74
2022/04/01 01:58:24;;;;;;;;;;;6.30;99.90;;;5.22;100.00;93364.75;10477929;28;1947;-77
2022/04/01 02:03:27;;;;;;;;;;;6.20;99.90;;;5.17;100.00;93357.66;10460399;28;1962;-77
2022/04/01 02:08:30;;;;;;;;;;;6.10;99.90;;;5.26;100.00;93355.06;10466069;28;2042;-75
2022/04/01 02:13:34;;;;;;;;;;;6.10;99.90;;;5.22;100.00;93354.09;10478323;28;1943;-76
2022/04/01 02:18:37;;;;;;;;;;;6.10;99.90;;;5.13;100.00;93346.00;10465830;28;1985;-76
2022/04/01 02:23:41;;;;;;;;;;;6.10;99.90;;;5.12;100.00;93349.75;10482745;28;1944;-76
2022/04/01 02:28:45;;;;;;;;;;;6.00;99.90;;;5.14;100.00;93348.34;10504002;28;1976;-75
2022/04/01 02:33:48;;;;;;;;;;;6.00;99.90;;;5.15;100.00;93359.78;10481463;28;2008;-75
2022/04/01 02:38:53;;;;;;;;;;;6.00;99.90;;;5.22;100.00;93354.09;10483960;28;1975;-76
2022/04/01 02:44:08;;;;;;;;;;;6.10;99.90;;;5.06;100.00;93357.06;10477624;28;2090;-76
2022/04/01 02:49:11;;;;;;;;;;;6.20;99.90;;;4.80;100.00;93359.44;10480275;28;1964;-75
2022/04/01 02:54:14;;;;;;;;;;;5.80;99.90;;;4.64;100.00;93352.03;10482012;28;2650;-74
2022/04/01 02:59:17;;;;;;;;;;;5.60;99.90;;;4.40;100.00;93362.88;10485895;28;1979;-77
2022/04/01 03:04:20;;;;;;;;;;;5.30;99.90;;;4.36;100.00;93356.56;10479592;28;1963;-76
2022/04/01 03:09:24;;;;;;;;;;;5.40;99.90;;;4.19;100.00;93362.41;10486614;28;2056;-77
2022/04/01 03:14:28;;;;;;;;;;;4.70;99.90;;;4.01;100.00;93364.06;10479962;28;2042;-76
2022/04/01 03:19:31;;;;;;;;;;;5.10;99.90;;;4.08;100.00;93372.47;10477902;28;1975;-75
2022/04/01 03:24:35;;;;;;;;;;;5.00;99.90;;;4.03;100.00;93370.66;10481797;28;1844;-76
2022/04/01 03:29:38;;;;;;;;;;;5.00;99.90;;;3.91;100.00;93378.28;10480548;28;1908;-77
2022/04/01 03:34:42;;;;;;;;;;;5.00;99.90;;;3.75;100.00;93376.94;10480662;28;1982;-76
2022/04/01 03:39:46;;;;;;;;;;;4.80;99.90;;;3.80;100.00;93369.69;10487302;28;1958;-75
2022/04/01 03:44:49;;;;;;;;;;;4.80;99.90;;;3.80;100.00;93380.31;10481972;28;1912;-75
2022/04/01 03:49:52;;;;;;;;;;;4.80;99.90;;;3.65;100.00;93371.81;10471585;28;2001;-75
2022/04/01 03:54:55;;;;;;;;;;;4.80;99.90;;;3.69;100.00;93370.94;10475776;28;2049;-76
2022/04/01 04:00:00;;;;;;;;;;;;;;;3.57;100.00;93375.13;10477947;28;2010;-76
2022/04/01 04:05:06;;;;;;;;;;;4.70;99.90;;;3.45;100.00;93379.00;10480540;28;1907;-75
2022/04/01 04:10:10;;;;;;;;;;;;;;;3.41;100.00;93382.50;10483763;28;1952;-75
2022/04/01 04:15:14;;;;;;;;;;;4.50;99.90;;;3.31;100.00;93387.94;10484512;28;1891;-75
2022/04/01 04:20:18;;;;;;;;;;;4.40;99.90;;;3.36;100.00;93382.56;10484926;28;1951;-77
2022/04/01 04:25:22;;;;;;;;;;;4.40;99.90;;;3.22;100.00;93390.44;10485310;28;1923;-77
2022/04/01 04:30:25;;;;;;;;;;;4.30;99.90;;;3.30;100.00;93386.38;10492238;28;1923;-76
2022/04/01 04:35:28;;;;;;;;;;;4.20;99.90;;;3.16;100.00;93400.34;10487184;28;1864;-76
2022/04/01 04:40:31;;;;;;;;;;;4.30;99.90;;;3.09;100.00;93399.91;10486824;28;1896;-74
2022/04/01 04:45:34;;;;;;;;;;;4.20;99.90;;;2.95;100.00;93402.47;10477966;28;1990;-74
2022/04/01 04:50:38;;;;;;;;;;;;;;;2.79;100.00;93416.97;10479535;28;1906;-77
2022/04/01 04:55:43;;;;;;;;;;;;;;;2.46;100.00;93416.00;10478449;28;1868;-76
2022/04/01 05:00:47;;;;;;;;;;;3.50;99.90;;;2.33;100.00;93421.94;10477630;28;1871;-76
2022/04/01 05:05:51;;;;;;;;;;;3.70;99.90;;;2.13;100.00;93436.19;10480109;28;1938;-76
2022/04/01 05:10:54;;;;;;;;;;;3.30;99.90;;;2.15;100.00;93432.16;10486797;28;2013;-76
2022/04/01 05:15:58;;;;;;;;;;;3.20;99.90;;;1.90;100.00;93445.63;10476850;28;2384;-76
2022/04/01 05:21:01;;;;;;;;;;;;;;;1.94;100.00;93451.16;10481560;28;1982;-76
2022/04/01 05:26:04;;;;;;;;;;;2.90;99.90;;;1.99;100.00;93462.53;10480569;28;1835;-77
2022/04/01 05:31:08;;;;;;;;;;;2.90;99.90;;;1.87;100.00;93462.88;10482424;28;1989;-76
2022/04/01 05:36:11;;;;;;;;;;;2.90;99.90;;;1.91;100.00;93465.78;10478315;28;1817;-77
2022/04/01 05:41:17;;;;;;;;;;;2.90;99.90;;;1.75;100.00;93474.88;10484047;28;1828;-75
2022/04/01 05:46:22;;;;;;;;;;;2.70;99.90;;;1.65;100.00;93475.72;10479940;28;1895;-75
2022/04/01 05:51:27;;;;;;;;;;;2.60;99.90;;;1.70;100.00;93473.03;10477315;28;1946;-76
2022/04/01 05:56:35;;;;;;;;;;;2.80;99.90;;;1.75;100.00;93480.16;10472395;28;2075;-77
2022/04/01 06:01:38;;;;;;;;;;;2.70;99.90;;;1.79;100.00;93483.88;10477766;28;2006;-77
2022/04/01 06:06:41;;;;;;;;;;;2.70;99.90;;;1.92;100.00;93480.59;10492094;28;1967;-77
2022/04/01 06:11:44;;;;;;;;;;;2.80;99.90;;;2.06;100.00;93492.16;10470911;28;1970;-78
2022/04/01 06:16:47;;;;;;;;;;;3.00;99.90;;;2.13;100.00;93476.72;10476647;28;1917;-77
2022/04/01 06:21:50;;;;;;;;;;;2.90;99.90;;;2.22;100.00;93494.66;10492184;22;2492;-73
2022/04/01 06:26:53;;;;;;;;;;;3.10;99.90;;;2.17;100.00;93498.97;10475310;28;1839;-73
2022/04/01 06:31:56;;;;;;;;;;;3.20;99.90;;;2.13;100.00;93503.22;10472076;28;1982;-73
2022/04/01 06:37:00;;;;;;;;;;;3.00;99.90;;;2.27;100.00;93498.06;10463696;28;1883;-72
2022/04/01 06:42:04;;;;;;;;;;;3.10;99.90;;;2.21;100.00;93506.34;10463557;28;1856;-73
2022/04/01 06:47:08;;;;;;;;;;;3.20;99.90;;;1.94;100.00;93512.09;10459139;28;1923;-72
2022/04/01 06:52:11;;;;;;;;;;;3.10;99.90;;;2.21;100.00;93517.75;10459131;28;1977;-70
2022/04/01 06:57:14;;;;;;;;;;;3.20;99.90;;;2.14;100.00;93504.81;10463334;28;1950;-72
2022/04/01 07:02:17;;;;;;;;;;;3.10;99.90;;;2.18;100.00;93518.31;10462756;28;2039;-72
2022/04/01 07:07:20;;;;;;;;;;;3.10;99.90;;;2.13;100.00;93511.16;10466422;28;1968;-70
2022/04/01 07:12:24;;;;;;;;;;;3.10;99.90;;;2.40;100.00;93507.25;10483084;28;1906;-71
2022/04/01 07:17:27;;;;;;;;;;;3.30;99.90;;;2.48;100.00;93514.59;10500798;28;1661;-73
2022/04/01 07:22:31;;;;;;;;;;;3.40;99.90;;;2.50;100.00;93514.34;10497316;28;1931;-71
2022/04/01 07:27:36;;;;;;;;;;;3.50;99.90;;;2.39;100.00;93516.28;10517131;28;1876;-71
2022/04/01 07:32:40;;;;;;;;;;;3.40;99.90;;;2.67;100.00;93522.66;10511371;28;1954;-71
2022/04/01 07:37:45;;;;;;;;;;;3.50;99.90;;;2.57;100.00;93512.94;10491050;28;1838;-71
2022/04/01 07:42:55;;;;;;;;;;;3.60;99.90;;;2.68;100.00;93519.75;10477867;28;1759;-73
2022/04/01 07:47:58;;;;;;;;;;;3.60;99.90;;;2.75;100.00;93523.94;10487038;28;1855;-72
2022/04/01 07:53:03;;;;;;;;;;;3.70;99.90;;;2.98;100.00;93523.19;10473961;28;1914;-71
2022/04/01 07:58:06;;;;;;;;;;;3.80;99.90;;;2.82;100.00;93527.06;10482892;28;1879;-74
2022/04/01 08:03:28;;;;;;;;;;;3.80;99.90;;;2.88;100.00;93533.91;10480711;28;1779;-73
2022/04/01 08:08:31;;;;;;;;;;;3.80;99.90;;;2.97;100.00;93538.31;10488760;28;1752;-72
2022/04/01 08:13:34;;;;;;;;;;;3.80;99.90;;;3.08;100.00;93544.31;10486885;28;1895;-73
2022/04/01 08:18:37;;;;;;;;;;;3.90;99.90;;;2.98;100.00;93544.41;10485753;28;1670;-72
2022/04/01 08:23:40;;;;;;;;;;;3.90;99.90;;;3.28;100.00;93540.66;10474363;28;2014;-71
2022/04/01 08:28:43;;;;;;;;;;;4.10;99.90;;;3.41;100.00;93552.47;10558693;22;3474;-72
2022/04/01 08:33:46;;;;;;;;;;;4.20;99.90;;;3.14;100.00;93555.69;10572001;27;1998;-70
2022/04/01 08:38:49;;;;;;;;;;;4.20;99.90;;;3.28;100.00;93559.25;10590326;28;1793;-72
2022/04/01 08:43:52;;;;;;;;;;;4.10;99.90;;;3.85;100.00;93551.41;10615922;28;1849;-71
2022/04/01 08:48:55;;;;;;;;;;;4.40;99.90;;;3.50;100.00;93556.88;10614468;27;1669;-71
2022/04/01 08:53:57;;;;;;;;;;;4.50;99.90;;;3.42;100.00;93568.09;10618181;28;1898;-72
2022/04/01 08:59:00;;;;;;;;;;;4.40;99.90;;;3.34;100.00;93575.91;10615301;27;1826;-71
2022/04/01 09:04:03;;;;;;;;;;;4.40;99.90;;;3.91;100.00;93561.69;10617026;27;1854;-72
2022/04/01 09:09:06;;;;;;;;;;;4.60;99.90;;;3.86;100.00;93579.56;10614558;28;1745;-70
2022/04/01 09:14:09;;;;;;;;;;;4.70;99.90;;;3.86;100.00;93585.66;10615231;28;1898;-71
2022/04/01 09:19:12;;;;;;;;;;;4.80;99.90;;;4.07;100.00;93583.53;10593060;27;1685;-71
2022/04/01 09:24:15;;;;;;;;;;;5.00;99.90;;;4.57;100.00;93589.22;10560963;27;2230;-70
2022/04/01 09:29:18;;;;;;;;;;;5.20;99.90;;;4.14;100.00;93589.31;10563353;28;1888;-70
2022/04/01 09:34:22;;;;;;;;;;;5.10;99.90;;;3.75;100.00;93590.34;10563578;27;1968;-71
2022/04/01 09:39:27;;;;;;;;;;;5.00;99.90;;;3.30;100.00;93601.44;10563438;27;1769;-72
2022/04/01 09:44:30;;;;;;;;;;;4.60;99.90;;;3.37;100.00;93604.53;10562993;28;1818;-71
2022/04/01 09:49:34;;;;;;;;;;;4.30;99.90;;;3.57;100.00;93606.22;10558410;28;1849;-69
2022/04/01 09:54:39;;;;;;;;;;;4.40;99.90;;;3.74;100.00;93602.00;10562770;27;1902;-69
2022/04/01 09:59:42;;;;;;;;;;;4.40;99.90;;;3.83;100.00;93609.38;10561863;28;1807;-69
2022/04/01 10:04:45;;;;;;;;;;;4.80;99.90;;;3.54;100.00;93610.22;10559320;28;1433;-70
2022/04/01 10:09:48;;;;;;;;;;;4.60;99.90;;;3.72;100.00;93612.16;10566820;28;1864;-69
2022/04/01 10:15:07;;;;;;;;;;;4.40;99.90;;;3.65;100.00;93614.34;10554767;28;1929;-70
2022/04/01 10:20:29;;;;;;;;;;;4.60;99.90;;;3.75;100.00;93616.91;10565632;28;1828;-70
2022/04/01 10:25:31;;;;;;;;;;;4.50;99.90;;;3.82;100.00;93621.06;10561540;28;1826;-71
2022/04/01 10:30:36;;;;;;;;;;;4.70;99.90;;;3.57;100.00;93628.25;10569875;28;1945;-70
2022/04/01 10:35:39;;;;;;;;;;;4.60;99.90;;;3.70;100.00;93627.59;10589579;28;1894;-70
2022/04/01 10:40:42;;;;;;;;;;;4.90;99.90;;;3.92;100.00;93636.91;10590214;28;1780;-71
2022/04/01 10:45:45;;;;;;;;;;;4.80;99.90;;;3.72;100.00;93635.28;10582606;28;1806;-71
2022/04/01 10:56:11;;;;;;;;;;;4.60;99.90;;;3.37;100.00;93631.94;10564798;28;1985;-71
2022/04/01 11:01:15;;;;;;;;;;;4.40;99.90;;;3.24;100.00;93633.38;10565937;27;1816;-71
2022/04/01 11:06:18;;;;;;;;;;;4.20;99.90;;;3.37;100.00;93641.72;10566924;27;1860;-69
2022/04/01 11:11:21;;;;;;;;;;;4.10;99.90;;;3.27;100.00;93652.47;10567870;28;1835;-69
2022/04/01 11:16:25;;;;;;;;;;;4.10;99.90;;;3.42;100.00;93649.66;10581365;28;1945;-71
2022/04/01 11:21:28;;;;;;;;;;;4.30;99.90;;;3.40;100.00;93651.81;10568322;28;1846;-72
2022/04/01 11:26:31;;;;;;;;;;;4.40;99.90;;;3.17;100.00;93648.81;10575249;27;1818;-70
2022/04/01 11:31:34;;;;;;;;;;;4.10;99.90;;;3.37;100.00;93655.00;10572719;28;1979;-70
2022/04/01 11:36:38;;;;;;;;;;;4.30;99.90;;;3.64;100.00;93652.63;10569543;28;1751;-72
2022/04/01 11:41:41;;;;;;;;;;;4.50;99.90;;;4.53;100.00;93647.56;10569670;27;1809;-70
2022/04/01 11:46:43;;;;;;;;;;;4.90;99.90;;;4.40;100.00;93658.13;10568534;28;1841;-71
2022/04/01 11:51:47;;;;;;;;;;;5.20;99.90;;;4.44;100.00;93651.13;10565478;28;1910;-70
2022/04/01 11:56:50;;;;;;;;;;;5.10;99.90;;;4.36;100.00;93651.78;10563414;28;1833;-70
2022/04/01 12:01:57;;;;;;;;;;;5.20;99.90;;;4.22;100.00;93660.47;10570181;28;1849;-71
2022/04/01 12:12:20;;;;;;;;;;;4.90;99.90;;;4.09;100.00;93657.72;10565469;27;2235;-72
2022/04/01 12:17:24;;;;;;;;;;;5.00;99.90;;;3.75;100.00;93663.94;10564207;27;1852;-71
2022/04/01 12:22:27;;;;;;;;;;;4.80;99.90;;;3.86;100.00;93665.41;10579823;27;1814;-70
2022/04/01 12:27:31;;;;;;;;;;;4.80;99.90;;;3.82;100.00;93664.41;10562007;28;1861;-70
2022/04/01 12:32:34;;;;;;;;;;;4.70;99.90;;;3.83;100.00;93665.19;10573991;28;1975;-71
2022/04/01 12:37:37;;;;;;;;;;;4.70;99.90;;;3.82;100.00;93674.22;10576794;28;2336;-70
2022/04/01 12:42:41;;;;;;;;;;;4.80;99.90;;;3.63;100.00;93680.28;10563163;27;1853;-71
2022/04/01 12:47:48;;;;;;;;;;;4.70;99.90;;;3.15;100.00;93685.47;10573768;27;1794;-71
2022/04/01 12:52:51;;;;;;;;;;;4.30;99.90;;;3.53;100.00;93680.38;10563412;27;1982;-70
2022/04/01 12:57:54;;;;;;;;;;;4.40;99.90;;;3.56;100.00;93677.13;10562329;28;1769;-71
2022/04/01 13:02:57;;;;;;;;;;;4.50;99.90;;;3.82;100.00;93682.19;10562046;28;1802;-70
2022/04/01 13:08:00;;;;;;;;;;;4.70;99.90;;;3.95;100.00;93686.84;10569153;27;1805;-70
2022/04/01 13:13:03;;;;;;;;;;;4.70;99.90;;;3.65;100.00;93686.09;10565361;27;1906;-73
2022/04/01 13:18:13;;;;;;;;;;;4.70;99.90;;;3.49;100.00;93682.78;10565922;28;1782;-70
2022/04/01 13:23:17;;;;;;;;;;;4.60;99.90;;;3.79;100.00;93689.66;10567164;28;1730;-71
2022/04/01 13:28:20;;;;;;;;;;;4.60;99.90;;;3.95;100.00;93689.53;10558126;27;1839;-71
2022/04/01 13:33:23;;;;;;;;;;;4.70;99.90;;;3.33;100.00;93701.81;10565336;28;1986;-71
2022/04/01 13:38:28;;;;;;;;;;;4.60;99.90;;;3.47;100.00;93694.75;10553713;27;1808;-72
2022/04/01 13:43:31;;;;;;;;;;;4.40;99.90;;;3.30;100.00;93700.47;10562747;27;1798;-71
2022/04/01 13:48:33;;;;;;;;;;;4.30;99.90;;;3.27;100.00;93700.25;10561255;28;1881;-72
2022/04/01 13:53:36;;;;;;;;;;;4.60;99.90;;;3.02;100.00;93709.22;10554906;27;1914;-71
2022/04/01 13:58:39;;;;;;;;;;;4.20;99.90;;;2.90;100.00;93714.84;10560122;28;1801;-70
2022/04/01 14:03:42;;;;;;;;;;;4.00;99.90;;;3.13;100.00;93721.34;10556372;28;1810;-71
2022/04/01 14:08:46;;;;;;;;;;;4.10;99.90;;;3.13;100.00;93716.81;10566325;28;1848;-71
2022/04/01 14:13:49;;;;;;;;;;;4.10;99.90;;;3.09;100.00;93713.13;10587954;28;1979;-70
2022/04/01 14:18:54;;;;;;;;;;;4.10;99.90;;;3.14;100.00;93707.00;10593612;28;1784;-72
2022/04/01 14:23:57;;;;;;;;;;;4.10;99.90;;;3.09;100.00;93705.16;10570200;28;1728;-70
2022/04/01 14:34:09;;;;;;;;;;;4.10;99.90;;;2.90;100.00;93725.47;10392966;28;2285;-79
2022/04/01 14:39:12;;;;;;;;;;;4.00;99.90;;;2.59;100.00;93723.00;10387603;28;1865;-80
2022/04/01 14:44:15;;;;;;;;;;;3.80;99.90;;;2.83;100.00;93727.66;10392886;28;1752;-79
2022/04/01 14:49:18;;;;;;;;;;;3.70;99.90;;;2.76;100.00;93737.78;10393985;28;1907;-77
2022/04/01 14:54:21;;;;;;;;;;;4.00;99.90;;;2.80;100.00;93738.78;10396308;28;1937;-81
2022/04/01 14:59:24;;;;;;;;;;;3.80;99.90;;;2.74;100.00;93751.31;10429374;28;1822;-80
2022/04/01 15:04:27;;;;;;;;;;;3.70;99.90;;;2.60;100.00;93759.06;10420014;28;1795;-79
2022/04/01 15:09:33;;;;;;;;;;;3.70;99.90;;;2.80;100.00;93770.63;10379151;28;1774;-79
2022/04/01 15:14:37;;;;;;;;;;;3.60;99.90;;;2.77;100.00;93771.19;10378835;28;1918;-79
2022/04/01 15:19:39;;;;;;;;;;;3.80;99.90;;;2.64;100.00;93773.38;10389535;28;1976;-80
2022/04/01 15:24:44;;;;;;;;;;;3.60;99.90;;;2.71;100.00;93779.16;10391107;28;1841;-80
2022/04/01 15:29:47;;;;;;;;;;;3.80;99.90;;;2.95;100.00;93778.53;10408227;28;1946;-80
2022/04/01 15:34:50;;;;;;;;;;;3.80;99.90;;;2.84;100.00;93792.91;10467401;28;1981;-82
2022/04/01 15:39:53;;;;;;;;;;;3.80;99.90;;;3.03;100.00;93785.91;10469215;28;2081;-78
2022/04/01 15:44:56;;;;;;;;;;;3.90;99.90;;;2.91;100.00;93782.78;10469107;28;1523;-81
2022/04/01 15:50:00;;;;;;;;;;;3.80;99.90;;;2.89;100.00;93791.03;10497514;28;2066;-80
2022/04/01 15:55:04;;;;;;;;;;;3.80;99.90;;;2.65;100.00;93782.91;10480626;28;2039;-79
2022/04/01 16:00:08;;;;;;;;;;;3.80;99.90;;;2.78;100.00;93794.00;10456453;28;1999;-80
2022/04/01 16:05:13;;;;;;;;;;;3.60;99.90;;;2.78;100.00;93799.31;10480330;28;1864;-79
2022/04/01 16:10:16;;;;;;;;;;;3.70;99.90;;;2.60;100.00;93811.31;10455370;28;2090;-79
2022/04/01 16:15:23;;;;;;;;;;;3.60;99.90;;;2.65;100.00;93812.09;10467207;28;2043;-79
2022/04/01 16:20:28;;;;;;;;;;;3.60;99.90;;;2.64;100.00;93820.31;10467007;28;1813;-79
2022/04/01 16:25:31;;;;;;;;;;;3.60;99.90;;;2.58;100.00;93827.50;10465878;28;1822;-77
2022/04/01 16:30:35;;;;;;;;;;;3.50;99.90;;;2.37;100.00;93832.09;10473082;28;1816;-78
2022/04/01 16:35:39;;;;;;;;;;;3.50;99.90;;;2.46;100.00;93829.66;10489119;28;1957;-77
2022/04/01 16:40:45;;;;;;;;;;;3.50;99.90;;;2.53;100.00;93840.78;10518743;28;1880;-79
2022/04/01 16:45:48;;;;;;;;;;;3.50;99.90;;;2.24;100.00;93850.44;10471876;28;1819;-77
2022/04/01 16:50:51;;;;;;;;;;;3.40;99.90;;;2.00;100.00;93847.53;10472513;28;1947;-78
2022/04/01 16:55:55;;;;;;;;;;;3.20;99.90;;;1.89;100.00;93862.63;10470316;28;1898;-78
2022/04/01 17:01:01;;;;;;;;;;;2.90;99.90;;;1.75;100.00;93866.88;10480939;28;1795;-79
2022/04/01 17:16:48;;;;;;;;;;;2.70;99.90;;;1.54;100.00;93882.78;10470991;28;1943;-78
2022/04/01 17:21:52;;;;;;;;;;;2.70;99.90;;;1.41;100.00;93883.28;10483253;28;1945;-77
2022/04/01 17:26:54;;;;;;;;;;;3.70;99.90;;;1.28;100.00;93873.22;10488391;28;1888;-79
2022/04/01 17:31:58;;;;;;;;;;;2.40;99.90;;;1.29;100.00;93880.88;10475129;28;1916;-78
2022/04/01 17:37:01;;;;;;;;;;;1.70;99.90;;;1.32;100.00;93895.44;10470929;28;1913;-77
2022/04/01 17:42:13;;;;;;;;;;;2.40;99.90;;;1.35;100.00;93901.00;10466850;28;1860;-80
2022/04/01 17:47:16;;;;;;;;;;;2.40;99.90;;;1.40;100.00;93891.47;10470270;28;2235;-77
2022/04/01 17:52:20;;;;;;;;;;;2.50;99.90;;;1.28;100.00;93889.88;10466604;28;1881;-79
2022/04/01 17:57:24;;;;;;;;;;;2.40;99.90;;;1.32;100.00;93885.63;10485297;28;2052;-78
2022/04/01 18:02:27;;;;;;;;;;;2.40;99.90;;;1.14;100.00;93895.91;10449694;28;1371;-78
2022/04/01 18:07:37;;;;;;;;;;;2.30;99.90;;;1.12;100.00;93913.91;10465270;28;1853;-78
2022/04/01 18:12:41;;;;;;;;;;;2.20;99.90;;;1.16;100.00;93920.28;10458550;28;1851;-77
2022/04/01 18:17:45;;;;;;;;;;;2.20;99.90;;;1.15;100.00;93924.78;10465168;28;2030;-79
2022/04/01 18:22:48;;;;;;;;;;;2.20;99.90;;;1.28;100.00;93937.53;10465644;28;1912;-80
2022/04/01 18:27:52;;;;;;;;;;;2.50;99.90;;;1.25;100.00;93945.97;10468081;28;1844;-78
2022/04/01 18:32:55;;;;;;;;;;;2.50;99.90;;;1.12;100.00;93937.72;10476258;28;2333;-77
2022/04/01 18:37:59;;;;;;;;;;;2.20;99.90;;;1.13;100.00;93944.59;10446371;28;1906;-77
2022/04/01 18:43:02;;;;;;;;;;;2.10;99.90;;;1.04;100.00;93952.25;10462030;28;1759;-77
2022/04/01 18:48:05;;;;;;;;;;;2.00;99.90;;;1.01;100.00;93948.25;10449996;28;1936;-77
2022/04/01 18:53:08;;;;;;;;;;;2.00;99.90;;;0.99;100.00;93955.66;10462078;28;1848;-76
2022/04/01 18:58:11;;;;;;;;;;;2.00;99.90;;;0.97;100.00;93949.84;10459349;28;1921;-78
2022/04/01 19:03:14;;;;;;;;;;;2.10;99.90;;;0.89;100.00;93958.28;10447242;28;1383;-78
2022/04/01 19:08:29;;;;;;;;;;;;;;;0.91;100.00;93960.66;10460318;28;1504;-78
2022/04/01 19:13:32;;;;;;;;;;;;;;;0.83;100.00;93969.91;10465526;28;1914;-79
2022/04/01 19:18:36;;;;;;;;;;;2.00;99.90;;;0.87;100.00;93981.53;10474475;28;1888;-77
2022/04/01 19:23:38;;;;;;;;;;;2.00;99.90;;;0.95;100.00;93975.75;10461097;28;1955;-75
2022/04/01 19:28:42;;;;;;;;;;;;;;;0.93;100.00;93988.44;10480632;28;1585;-77
2022/04/01 19:33:45;;;;;;;;;;;;;;;0.73;100.00;93993.63;10505567;28;1961;-79
2022/04/01 19:38:49;;;;;;;;;;;;;;;0.66;100.00;93993.06;10482650;28;1556;-76
2022/04/01 19:43:52;;;;;;;;;;;;;;;0.65;100.00;93997.56;10492387;28;1503;-77
2022/04/01 19:48:56;;;;;;;;;;;;;;;0.73;100.00;93994.41;10500365;28;1825;-79
2022/04/01 19:53:59;;;;;;;;;;;1.70;99.90;;;0.66;100.00;93995.69;10448822;28;1983;-78
2022/04/01 19:59:02;;;;;;;;;;;1.60;99.90;;;0.65;100.00;94012.63;10469618;28;1832;-78
2022/04/01 20:04:05;;;;;;;;;;;1.60;99.90;;;0.85;100.00;94019.88;10495298;22;2450;-70
2022/04/01 20:09:08;;;;;;;;;;;1.80;99.90;;;0.74;100.00;94021.66;10494594;28;1885;-69
2022/04/01 20:14:10;;;;;;;;;;;1.80;99.90;;;0.63;100.00;94020.00;10483447;28;1906;-70
2022/04/01 20:19:13;;;;;;;;;;;1.70;99.90;;;0.56;100.00;94020.22;10462900;28;2018;-69
2022/04/01 20:24:16;;;;;;;;;;;1.60;99.90;;;0.54;100.00;94015.19;10462940;28;2011;-68
2022/04/01 20:29:19;;;;;;;;;;;1.50;99.90;;;0.48;100.00;94010.91;10465614;28;1839;-70
2022/04/01 20:34:22;;;;;;;;;;;1.50;99.90;;;0.37;100.00;94013.72;10465462;28;2033;-69
2022/04/01 20:39:26;;;;;;;;;;;1.40;99.90;;;0.43;100.00;94016.16;10468748;28;2090;-69
2022/04/01 20:44:29;;;;;;;;;;;1.40;99.90;;;0.47;100.00;94017.25;10468365;28;2045;-69
2022/04/01 20:49:32;;;;;;;;;;;1.40;99.90;;;0.44;100.00;94019.59;10476902;28;1793;-69
2022/04/01 20:54:35;;;;;;;;;;;1.40;99.90;;;0.54;100.00;94019.69;10472267;28;1977;-68
2022/04/01 20:59:38;;;;;;;;;;;1.50;99.90;;;0.51;100.00;94021.00;10479969;28;2062;-68
2022/04/01 21:04:41;;;;;;;;;;;1.50;99.90;;;0.60;100.00;94037.19;10467995;28;1947;-69
2022/04/01 21:09:45;;;;;;;;;;;1.50;99.90;;;0.69;100.00;94034.84;10490893;28;1859;-67
2022/04/01 21:14:49;;;;;;;;;;;1.60;99.90;;;0.51;100.00;94034.22;10470154;28;2034;-68
2022/04/01 21:19:52;;;;;;;;;;;1.60;99.90;;;0.62;100.00;94044.84;10464017;28;1876;-67
2022/04/01 21:24:56;;;;;;;;;;;1.60;99.90;;;0.61;100.00;94032.69;10460288;28;1983;-68
2022/04/01 21:29:59;;;;;;;;;;;1.60;99.90;;;0.60;100.00;94041.66;10485091;22;3546;-71
2022/04/01 21:35:02;;;;;;;;;;;1.60;99.90;;;0.45;100.00;94032.59;10468191;28;1958;-71
2022/04/01 21:40:05;;;;;;;;;;;1.50;99.90;;;0.48;100.00;94025.97;10453175;28;1790;-71
2022/04/01 21:45:08;;;;;;;;;;;1.40;99.90;;;0.49;100.00;94025.72;10423937;28;1810;-71
2022/04/01 21:50:12;;;;;;;;;;;1.50;99.90;;;0.41;100.00;94034.13;10436250;28;1973;-71
2022/04/01 21:55:14;;;;;;;;;;;1.40;99.90;;;0.42;100.00;94030.44;10430576;28;1981;-71
2022/04/01 22:00:18;;;;;;;;;;;1.40;99.90;;;0.31;100.00;94036.69;10434490;28;1853;-71
2022/04/01 22:05:21;;;;;;;;;;;1.40;99.90;;;0.25;100.00;94035.88;10436686;28;1914;-70
2022/04/01 22:10:24;;;;;;;;;;;1.30;99.90;;;0.29;100.00;94043.28;10434604;28;2198;-71
2022/04/01 22:15:28;;;;;;;;;;;1.20;99.90;;;0.24;100.00;94038.72;10437765;28;1979;-71
2022/04/01 22:20:31;;;;;;;;;;;1.20;99.90;;;0.17;100.00;94048.72;10461438;28;1890;-71
2022/04/01 22:25:35;;;;;;;;;;;;;;;0.14;100.00;94049.22;10489873;28;1469;-71
2022/04/01 22:30:39;;;;;;;;;;;1.40;99.90;;;0.10;100.00;94041.00;10503407;28;1573;-71
2022/04/01 22:35:42;;;;;;;;;;;1.80;99.90;;;0.05;100.00;94040.16;10475091;28;1887;-71
2022/04/01 22:40:45;;;;;;;;;;;1.30;99.90;;;0.02;100.00;94044.09;10481866;28;1846;-70
2022/04/01 22:45:49;;;;;;;;;;;;;;;0.07;100.00;94041.50;10482783;28;1589;-69
2022/04/01 22:50:52;;;;;;;;;;;1.30;99.90;;;0.04;100.00;94038.56;10487183;28;1759;-71
2022/04/01 22:55:56;;;;;;;;;;;1.20;99.90;;;-0.03;100.00;94044.06;10466047;28;1914;-70
2022/04/01 23:00:59;;;;;;;;;;;1.20;99.90;;;-0.02;100.00;94043.00;10453489;28;1842;-70
2022/04/01 23:06:02;;;;;;;;;;;1.10;99.90;;;-0.05;100.00;94049.59;10451848;28;1783;-70
2022/04/01 23:11:05;;;;;;;;;;;1.00;99.90;;;-0.03;100.00;94058.06;10464665;28;2351;-70
2022/04/01 23:16:08;;;;;;;;;;;1.00;99.90;;;-0.01;100.00;94053.31;10440914;28;1922;-71
2022/04/01 23:21:10;;;;;;;;;;;1.00;99.90;;;-0.07;100.00;94070.16;10448617;28;1780;-70
2022/04/01 23:26:13;;;;;;;;;;;1.00;99.90;;;-0.04;100.00;94059.09;10437316;28;1862;-70
2022/04/01 23:31:16;;;;;;;;;;;0.90;99.90;;;-0.08;100.00;94057.19;10440168;28;2064;-71
2022/04/01 23:36:19;;;;;;;;;;;1.00;99.90;;;0.05;100.00;94048.06;10463375;28;1914;-71
2022/04/01 23:41:24;;;;;;;;;;;0.90;99.90;;;-0.06;100.00;94048.00;10433459;28;2048;-71
2022/04/01 23:46:27;;;;;;;;;;;0.90;99.90;;;-0.06;100.00;94058.56;10439012;28;1989;-70
2022/04/01 23:51:30;;;;;;;;;;;0.90;99.90;;;-0.06;100.00;94061.19;10442748;28;2205;-70
2022/04/01 23:56:33;;;;;;;;;;;0.90;99.90;;;-0.03;100.00;94060.69;10445389;28;1918;-70
